Time;durP1;ratioP1;P1;durP2;ratioP2;P2;SDS_P1;SDS_P2;PMS_P1;PMS_P2;Temp;Humidity;BMP_temperature;BMP_pressure;BME280_temperature;BME280_humidity;BME280_pressure;Samples;Min_cycle;Max_cycle;Signal;HPM_P1;HPM_P2
2023/07/10 00:00:06;;;;;;;56.05;33.78;;;;;;;28.73;61.44;100901.31;5061025;28;70046;-46
2023/07/10 00:02:40;;;;;;;64.82;39.67;;;;;;;28.77;65.59;100902.56;5053838;28;66435;-46
2023/07/10 00:05:16;;;;;;;96.90;63.38;;;;;;;28.84;71.81;100903.41;5052716;28;70116;-44
2023/07/10 00:07:48;;;;;;;122.20;77.10;;;;;;;28.87;75.05;100903.00;5059306;28;65812;-44
2023/07/10 00:10:20;;;;;;;131.32;84.80;;;;;;;28.92;77.41;100908.59;5051459;28;70279;-47
2023/07/10 00:12:51;;;;;;;129.38;89.88;;;;;;;28.82;76.32;100874.94;5055077;28;67093;-43
2023/07/10 00:15:23;;;;;;;133.60;91.63;;;;;;;28.99;76.54;100905.91;5059761;28;70029;-43
2023/07/10 00:17:54;;;;;;;141.68;95.20;;;;;;;28.91;81.95;100909.63;5058418;28;65140;-43
2023/07/10 00:20:28;;;;;;;139.97;92.27;;;;;;;28.97;80.18;100913.38;5057126;28;70567;-45
2023/07/10 00:22:59;;;;;;;136.82;93.47;;;;;;;28.96;81.39;100912.53;5056018;28;66732;-44
2023/07/10 00:25:30;;;;;;;126.63;85.60;;;;;;;28.98;80.85;100912.34;5056224;28;69846;-45
2023/07/10 00:28:01;;;;;;;132.77;90.95;;;;;;;29.02;80.70;100916.28;5052993;28;67019;-43
2023/07/10 00:30:34;;;;;;;127.95;89.45;;;;;;;29.05;81.79;100920.47;5054802;28;43318;-43
2023/07/10 00:33:13;;;;;;;128.13;82.80;;;;;;;28.56;80.87;100819.09;5054781;28;67640;-44
2023/07/10 00:35:45;;;;;;;114.97;73.10;;;;;;;29.22;80.88;100913.63;5059201;28;69171;-44
2023/07/10 00:38:31;;;;;;;105.40;68.80;;;;;;;29.23;79.65;100912.59;5058635;28;66310;-44
2023/07/10 00:41:06;;;;;;;97.97;65.60;;;;;;;29.33;79.73;100917.56;5054765;28;69991;-44
2023/07/10 00:43:45;;;;;;;97.38;62.95;;;;;;;29.28;79.42;100912.81;5056300;28;66743;-46
2023/07/10 00:46:22;;;;;;;82.15;54.72;;;;;;;28.90;74.52;100805.38;5053507;28;69474;-46
2023/07/10 00:49:28;;;;;;;78.15;50.95;;;;;;;29.47;73.31;100915.69;5058513;28;66642;-46
2023/07/10 00:52:08;;;;;;;76.43;49.83;;;;;;;29.15;71.87;100840.69;5027854;28;69332;-46
2023/07/10 00:54:43;;;;;;;78.28;48.75;;;;;;;29.45;71.04;100874.50;5052450;28;66376;-46
2023/07/10 00:57:20;;;;;;;77.07;48.92;;;;;;;29.46;71.43;100868.91;5054241;28;70163;-47
2023/07/10 00:59:52;;;;;;;69.35;45.83;;;;;;;29.76;70.46;100907.13;5037784;28;66414;-46
2023/07/10 01:02:24;;;;;;;66.85;45.28;;;;;;;29.79;70.71;100911.28;5057509;28;70976;-46
2023/07/10 01:05:00;;;;;;;67.97;45.63;;;;;;;29.69;70.13;100895.50;5039699;28;66805;-46
2023/07/10 01:07:46;;;;;;;70.00;44.42;;;;;;;29.73;70.85;100896.75;5039095;28;70346;-46
2023/07/10 01:10:18;;;;;;;62.50;41.22;;;;;;;29.80;70.60;100902.94;5055226;28;66452;-46
2023/07/10 01:12:49;;;;;;;61.60;41.60;;;;;;;29.90;70.21;100904.41;5055868;28;69536;-46
2023/07/10 01:15:20;;;;;;;64.22;40.67;;;;;;;29.95;69.99;100909.97;5057943;28;66199;-46
2023/07/10 01:17:53;;;;;;;59.95;39.42;;;;;;;29.86;70.29;100889.63;5057704;28;70800;-47
2023/07/10 01:20:44;;;;;;;56.78;40.55;;;;;;;29.28;70.37;100796.63;5050833;28;66859;-45
2023/07/10 01:23:17;;;;;;;56.28;38.15;;;;;;;30.03;70.37;100907.03;5057234;28;70459;-46
2023/07/10 01:25:54;;;;;;;47.97;35.78;;;;;;;29.54;70.20;100821.91;5044727;28;66427;-45
2023/07/10 01:28:27;;;;;;;53.92;36.22;;;;;;;29.98;69.94;100890.66;5047210;28;70009;-46
2023/07/10 01:30:59;;;;;;;50.85;35.95;;;;;;;29.77;69.88;100846.59;5057475;28;66935;-46
2023/07/10 01:33:42;;;;;;;46.25;35.00;;;;;;;29.37;69.57;100773.72;5057845;28;69686;-44
2023/07/10 01:36:18;;;;;;;45.38;33.67;;;;;;;29.64;69.16;100811.50;5053926;28;65544;-43
2023/07/10 01:38:56;;;;;;;45.90;32.05;;;;;;;29.60;69.11;100796.72;5048356;28;69852;-45
2023/07/10 01:41:41;;;;;;;41.55;31.52;;;;;;;30.11;69.15;100890.56;5057914;28;66281;-45
2023/07/10 01:44:29;;;;;;;42.58;31.25;;;;;;;30.16;69.13;100911.56;5054859;28;70662;-44
2023/07/10 01:47:03;;;;;;;37.15;29.80;;;;;;;29.64;68.98;100789.88;5054032;28;65905;-45
2023/07/10 01:49:42;;;;;;;43.33;32.03;;;;;;;29.67;68.94;100791.31;5038081;28;71289;-45
2023/07/10 01:52:16;;;;;;;35.72;28.92;;;;;;;30.30;68.63;100896.13;5039452;28;66535;-45
2023/07/10 01:54:48;;;;;;;37.47;28.33;;;;;;;30.27;68.33;100875.75;5036433;28;70495;-46
2023/07/10 01:57:23;;;;;;;36.15;27.70;;;;;;;30.36;68.11;100884.44;5041437;28;66767;-45
2023/07/10 01:59:54;;;;;;;34.85;26.95;;;;;;;30.25;68.38;100862.41;5048175;28;70459;-45
2023/07/10 02:02:25;;;;;;;35.10;27.33;;;;;;;30.38;68.07;100883.19;5057340;28;67640;-44
2023/07/10 02:04:57;;;;;;;;;;;;;;;30.07;69.05;100881.22;5033577;28;70405;-44
2023/07/10 02:07:27;;;;;;;39.33;26.60;;;;;;;30.37;67.78;100875.25;5057394;28;66601;-46
2023/07/10 02:09:58;;;;;;;31.17;23.67;;;;;;;30.41;67.95;100882.75;5057939;28;69159;-44
2023/07/10 02:12:29;;;;;;;27.00;24.00;;;;;;;30.52;68.09;100883.94;5049460;28;66519;-44
2023/07/10 02:15:01;;;;;;;29.13;23.60;;;;;;;30.37;67.73;100864.44;5050805;28;70090;-45
2023/07/10 02:17:32;;;;;;;25.93;22.50;;;;;;;30.45;67.76;100866.88;5046269;28;65708;-44
2023/07/10 02:20:05;;;;;;;30.55;23.80;;;;;;;30.51;67.81;100871.47;5037624;28;70596;-45
2023/07/10 02:22:36;;;;;;;27.35;23.15;;;;;;;30.59;67.30;100879.31;5051251;28;66562;-44
2023/07/10 02:25:08;;;;;;;25.67;22.27;;;;;;;30.58;67.61;100877.63;5039950;28;69034;-45
2023/07/10 02:27:39;;;;;;;29.05;23.27;;;;;;;30.59;67.08;100863.06;5039482;28;65306;-44
2023/07/10 02:30:10;;;;;;;26.63;22.10;;;;;;;30.60;67.35;100859.31;5040297;28;69534;-45
2023/07/10 02:32:42;;;;;;;24.63;22.00;;;;;;;30.76;67.06;100878.75;5054636;28;65772;-45
2023/07/10 02:35:13;;;;;;;22.73;20.33;;;;;;;30.78;66.65;100876.66;5040142;28;70247;-45
2023/07/10 02:37:44;;;;;;;24.92;20.45;;;;;;;30.82;66.86;100876.06;5051535;28;66335;-45
2023/07/10 02:40:15;;;;;;;23.23;20.52;;;;;;;30.84;66.79;100879.38;5041990;28;69494;-46
2023/07/10 02:42:46;;;;;;;23.60;20.02;;;;;;;30.88;66.85;100882.47;5042656;28;65884;-45
2023/07/10 02:45:19;;;;;;;23.55;18.73;;;;;;;30.88;66.45;100877.06;5042081;28;70791;-45
2023/07/10 02:47:51;;;;;;;22.67;19.80;;;;;;;30.85;66.33;100862.06;5048948;28;65791;-45
2023/07/10 02:50:22;;;;;;;21.40;19.25;;;;;;;30.80;66.30;100853.78;5044137;28;68972;-45
2023/07/10 02:52:53;;;;;;;21.17;19.02;;;;;;;31.00;66.23;100872.56;5040346;28;66576;-45
2023/07/10 02:55:24;;;;;;;22.63;18.33;;;;;;;31.01;65.96;100860.69;5038142;28;70721;-45
2023/07/10 02:57:56;;;;;;;23.77;18.13;;;;;;;31.06;66.11;100868.97;5047648;28;66382;-45
2023/07/10 03:00:27;;;;;;;20.52;18.45;;;;;;;31.00;65.87;100853.59;5056268;28;69786;-45
2023/07/10 03:02:58;;;;;;;26.13;18.45;;;;;;;31.15;65.40;100862.22;5035703;28;65587;-45
2023/07/10 03:05:29;;;;;;;;;;;;;;;30.86;66.66;100873.72;5040948;28;70630;-44
2023/07/10 03:08:01;;;;;;;19.67;17.55;;;;;;;31.16;65.58;100869.28;5041189;28;66212;-45
2023/07/10 03:10:32;;;;;;;18.25;16.60;;;;;;;31.21;65.38;100865.09;5039108;28;71499;-45
2023/07/10 03:13:03;;;;;;;18.48;16.70;;;;;;;31.28;65.36;100868.56;5043560;28;66428;-45
2023/07/10 03:15:34;;;;;;;18.90;17.10;;;;;;;31.29;65.39;100867.53;5036054;28;69674;-45
2023/07/10 03:18:05;;;;;;;18.17;16.45;;;;;;;31.31;65.45;100860.81;5042242;28;67473;-46
2023/07/10 03:20:40;;;;;;;18.08;16.20;;;;;;;31.17;65.22;100826.75;5058239;28;70039;-46
2023/07/10 03:23:11;;;;;;;18.58;16.42;;;;;;;31.37;65.13;100846.41;5063183;28;66121;-46
2023/07/10 03:25:42;;;;;;;18.70;16.80;;;;;;;31.38;64.98;100844.53;5061775;28;69752;-46
2023/07/10 03:28:14;;;;;;;17.38;15.50;;;;;;;31.41;65.03;100844.06;5060808;28;65185;-46
2023/07/10 03:30:45;;;;;;;16.17;14.73;;;;;;;31.43;64.94;100836.56;5056616;28;70398;-47
2023/07/10 03:33:19;;;;;;;19.60;16.00;;;;;;;30.91;64.72;100757.44;5061261;28;66445;-45
2023/07/10 03:36:01;;;;;;;16.77;15.18;;;;;;;31.30;64.98;100831.22;5061526;28;70081;-46
2023/07/10 03:38:34;;;;;;;15.68;14.35;;;;;;;31.52;64.75;100840.63;5059576;28;65466;-43
2023/07/10 03:41:06;;;;;;;16.08;14.65;;;;;;;31.54;64.64;100833.09;5042586;28;70019;-45
2023/07/10 03:43:36;;;;;;;15.70;14.18;;;;;;;31.56;64.34;100833.66;5060260;28;65707;-50
2023/07/10 03:46:07;;;;;;;15.83;14.50;;;;;;;31.58;64.54;100823.44;5059431;28;69883;-44
2023/07/10 03:48:39;;;;;;;13.73;12.60;;;;;;;31.54;64.40;100805.97;5059905;28;67116;-44
2023/07/10 03:51:10;;;;;;;14.40;13.20;;;;;;;31.63;64.17;100813.81;5059364;28;70658;-45
2023/07/10 03:53:41;;;;;;;14.27;12.75;;;;;;;31.67;63.94;100815.00;5043172;28;66712;-45
2023/07/10 03:56:12;;;;;;;14.93;12.75;;;;;;;31.65;63.84;100812.53;5060876;28;69130;-44
2023/07/10 03:58:45;;;;;;;14.50;12.90;;;;;;;31.14;64.01;100713.41;5058351;28;66568;-44
2023/07/10 04:01:17;;;;;;;14.63;13.18;;;;;;;31.73;63.96;100814.09;5059673;28;69233;-45
2023/07/10 04:03:48;;;;;;;11.97;11.10;;;;;;;31.75;63.92;100811.97;5060863;28;66631;-45
2023/07/10 04:06:19;;;;;;;;;;;;;;;31.46;64.70;100802.75;5061704;28;70909;-45
2023/07/10 04:08:50;;;;;;;12.57;11.60;;;;;;;31.74;63.69;100784.03;5062931;28;65889;-44
2023/07/10 04:11:22;;;;;;;12.65;11.73;;;;;;;31.77;63.70;100788.16;5037055;28;70080;-44
2023/07/10 04:13:53;;;;;;;11.82;11.02;;;;;;;31.61;63.72;100757.91;5055339;28;65385;-44
2023/07/10 04:16:27;;;;;;;12.68;11.40;;;;;;;31.70;63.56;100766.53;5060628;28;69615;-44
2023/07/10 04:18:59;;;;;;;12.77;11.75;;;;;;;31.78;63.70;100768.13;5058194;28;66384;-43
2023/07/10 04:21:31;;;;;;;11.83;10.87;;;;;;;31.88;63.55;100800.97;5057951;28;69086;-44
2023/07/10 04:24:04;;;;;;;10.70;9.90;;;;;;;31.79;63.58;100767.91;5057901;28;65379;-45
2023/07/10 04:26:35;;;;;;;11.02;10.18;;;;;;;31.94;63.33;100783.78;5062139;28;70552;-45
2023/07/10 04:29:07;;;;;;;9.93;9.33;;;;;;;31.95;63.45;100793.56;5059497;28;66220;-44
2023/07/10 04:31:38;;;;;;;11.10;10.23;;;;;;;31.94;63.04;100783.78;5058579;28;70234;-44
2023/07/10 04:34:10;;;;;;;10.70;9.65;;;;;;;31.84;63.15;100756.34;5064707;28;66769;-44
2023/07/10 04:36:42;;;;;;;11.15;10.32;;;;;;;31.74;63.04;100740.63;5061246;28;71637;-44
2023/07/10 04:39:13;;;;;;;11.13;10.07;;;;;;;32.05;62.99;100783.00;5056843;28;65981;-44
2023/07/10 04:41:44;;;;;;;10.35;9.75;;;;;;;31.97;62.93;100764.34;5057946;28;70264;-44
2023/07/10 04:44:16;;;;;;;9.70;8.90;;;;;;;32.09;62.81;100786.06;5062724;28;66244;-47
2023/07/10 04:46:47;;;;;;;9.70;8.88;;;;;;;32.13;62.88;100784.56;5055171;28;69546;-45
2023/07/10 04:49:20;;;;;;;9.30;8.80;;;;;;;32.16;62.86;100780.56;5070853;28;64970;-44
2023/07/10 04:51:51;;;;;;;9.50;8.80;;;;;;;32.18;62.57;100764.84;5070680;28;69547;-44
2023/07/10 04:54:22;;;;;;;9.40;8.80;;;;;;;32.22;62.77;100768.78;5058262;28;66476;-44
2023/07/10 04:56:53;;;;;;;9.40;8.68;;;;;;;32.10;62.68;100743.50;5058170;28;70817;-45
2023/07/10 04:59:24;;;;;;;9.48;8.73;;;;;;;32.18;62.44;100745.88;5056704;28;66308;-45
2023/07/10 05:01:55;;;;;;;9.23;8.52;;;;;;;32.20;62.38;100751.91;5062861;28;70162;-44
2023/07/10 05:04:26;;;;;;;8.73;8.20;;;;;;;32.28;62.53;100751.56;5058846;28;66990;-45
2023/07/10 05:07:02;;;;;;;8.10;7.50;;;;;;;32.28;62.42;100746.94;5056869;28;70960;-46
2023/07/10 05:09:34;;;;;;;9.40;8.57;;;;;;;31.99;62.25;100691.69;5055941;28;65832;-45
2023/07/10 05:12:05;;;;;;;9.27;8.68;;;;;;;32.32;62.31;100744.63;5057881;28;70576;-45
2023/07/10 05:14:36;;;;;;;8.68;7.95;;;;;;;32.25;62.29;100719.47;5058866;28;66222;-45
2023/07/10 05:17:08;;;;;;;8.30;7.80;;;;;;;32.37;62.48;100728.44;5058850;28;70205;-44
2023/07/10 05:19:39;;;;;;;7.90;7.50;;;;;;;32.39;62.29;100734.47;5059481;28;67245;-44
2023/07/10 05:22:10;;;;;;;7.70;7.20;;;;;;;32.40;62.02;100721.72;5065283;28;70492;-45
2023/07/10 05:24:41;;;;;;;7.72;7.32;;;;;;;32.45;62.41;100730.81;5074182;28;65688;-45
2023/07/10 05:27:12;;;;;;;8.02;7.57;;;;;;;32.38;62.12;100707.56;5060623;28;69181;-46
2023/07/10 05:29:43;;;;;;;8.15;7.55;;;;;;;32.48;62.03;100714.09;5051159;28;66869;-44
2023/07/10 05:32:14;;;;;;;8.02;7.47;;;;;;;32.52;61.95;100719.88;5060147;28;68764;-44
2023/07/10 05:34:45;;;;;;;7.32;6.93;;;;;;;32.55;61.82;100713.16;5057239;28;66147;-43
2023/07/10 05:37:16;;;;;;;7.70;7.22;;;;;;;32.56;61.70;100709.38;5059095;28;69909;-44
2023/07/10 05:39:47;;;;;;;7.80;7.13;;;;;;;32.62;61.80;100708.41;5057859;28;66602;-44
2023/07/10 05:42:18;;;;;;;9.50;7.47;;;;;;;32.63;61.51;100696.50;5057021;28;69740;-44
2023/07/10 05:44:49;;;;;;;7.00;6.60;;;;;;;32.66;61.80;100698.75;5058683;28;66145;-44
2023/07/10 05:47:20;;;;;;;7.00;6.60;;;;;;;32.41;61.68;100671.81;5056424;28;69344;-45
2023/07/10 05:49:51;;;;;;;7.43;6.93;;;;;;;32.71;61.43;100699.69;5060890;28;65278;-44
2023/07/10 05:52:22;;;;;;;7.82;6.20;;;;;;;32.33;61.29;100634.97;5058123;28;70295;-45
2023/07/10 05:54:54;;;;;;;7.03;6.63;;;;;;;32.79;61.18;100694.94;5057463;28;65972;-45
2023/07/10 05:57:26;;;;;;;6.30;5.82;;;;;;;32.83;61.27;100698.84;5028762;28;70068;-45
2023/07/10 05:59:57;;;;;;;11.05;6.68;;;;;;;32.74;61.27;100678.56;5058465;28;65256;-45
2023/07/10 06:02:28;;;;;;;6.60;5.97;;;;;;;32.77;61.31;100678.09;5056965;28;70577;-45
2023/07/10 06:04:59;;;;;;;6.13;5.80;;;;;;;32.87;61.14;100683.72;5061252;28;64359;-44
2023/07/10 06:07:31;;;;;;;6.35;5.95;;;;;;;32.91;61.04;100684.91;5055865;28;69015;-44
2023/07/10 06:10:01;;;;;;;6.50;6.00;;;;;;;32.92;61.16;100690.09;5059468;28;66269;-44
2023/07/10 06:12:33;;;;;;;6.13;5.72;;;;;;;32.96;60.85;100681.44;5064556;28;68988;-46
2023/07/10 06:15:04;;;;;;;5.87;5.57;;;;;;;32.99;60.68;100680.97;5071703;28;66657;-45
2023/07/10 06:17:36;;;;;;;6.03;5.63;;;;;;;32.88;60.48;100653.59;5059643;28;69876;-45
2023/07/10 06:20:07;;;;;;;5.25;4.95;;;;;;;33.04;60.59;100659.38;5071993;28;66120;-45
2023/07/10 06:22:38;;;;;;;;;;;;;;;32.79;60.99;100674.06;5047870;28;70212;-46
2023/07/10 06:25:10;;;;;;;5.53;5.15;;;;;;;32.69;60.41;100611.38;5064184;28;66706;-45
2023/07/10 06:27:41;;;;;;;5.93;5.53;;;;;;;33.00;60.47;100656.31;5062483;28;69254;-45
2023/07/10 06:30:12;;;;;;;5.37;5.07;;;;;;;33.05;60.46;100647.47;5068456;28;65697;-45
2023/07/10 06:32:44;;;;;;;5.30;5.05;;;;;;;33.07;60.46;100651.59;5061546;28;70655;-46
2023/07/10 06:35:15;;;;;;;4.85;4.55;;;;;;;33.18;60.69;100658.03;5063936;28;66291;-45
2023/07/10 06:37:46;;;;;;;5.18;4.80;;;;;;;33.21;60.33;100657.56;5059241;28;70111;-46
2023/07/10 06:40:17;;;;;;;5.32;4.90;;;;;;;33.23;60.17;100658.13;5045047;28;65742;-45
2023/07/10 06:42:49;;;;;;;5.35;5.05;;;;;;;33.16;60.20;100638.44;5061442;28;70015;-44
2023/07/10 06:45:22;;;;;;;4.72;4.50;;;;;;;33.28;60.12;100652.81;5045793;28;65747;-44
2023/07/10 06:47:53;;;;;;;4.60;4.30;;;;;;;33.28;60.08;100652.81;5067785;28;68777;-45
2023/07/10 06:50:24;;;;;;;5.32;5.03;;;;;;;33.19;59.90;100623.53;5042367;28;66135;-45
2023/07/10 06:52:55;;;;;;;5.27;4.77;;;;;;;33.25;60.16;100620.66;5059780;28;70430;-46
2023/07/10 06:55:32;;;;;;;4.97;4.43;;;;;;;33.30;60.00;100631.66;5059866;28;65305;-46
2023/07/10 06:58:03;;;;;;;5.10;4.80;;;;;;;33.33;59.62;100633.88;5061360;28;70355;-45
2023/07/10 07:00:34;;;;;;;5.15;4.85;;;;;;;33.38;59.92;100636.69;5053320;28;65955;-45
2023/07/10 07:03:07;;;;;;;4.80;4.60;;;;;;;33.35;59.80;100629.03;5061221;28;71640;-44
2023/07/10 07:05:43;;;;;;;4.35;4.10;;;;;;;33.43;59.82;100632.41;5056331;28;66397;-45
2023/07/10 07:08:19;;;;;;;4.75;4.45;;;;;;;33.46;59.82;100629.19;5064398;28;69919;-46
2023/07/10 07:10:53;;;;;;;4.88;4.57;;;;;;;33.17;59.34;100585.72;5044895;28;65722;-45
2023/07/10 07:13:24;;;;;;;4.63;4.30;;;;;;;33.47;59.68;100622.72;5059519;28;70478;-45
2023/07/10 07:15:56;;;;;;;4.13;3.70;;;;;;;33.48;59.38;100618.91;5052103;28;66483;-48
2023/07/10 07:18:28;;;;;;;4.30;4.10;;;;;;;33.55;59.38;100625.06;5060011;28;69674;-45
2023/07/10 07:20:59;;;;;;;4.53;4.15;;;;;;;33.55;59.40;100619.63;5031367;28;66752;-46
2023/07/10 07:23:31;;;;;;;4.28;4.00;;;;;;;33.58;59.35;100619.13;5059911;28;69829;-45
2023/07/10 07:26:01;;;;;;;4.30;4.00;;;;;;;33.58;59.33;100619.13;5061082;28;66454;-45
2023/07/10 07:28:33;;;;;;;6.35;4.13;;;;;;;33.57;59.17;100621.03;5050094;28;70389;-45
2023/07/10 07:31:05;;;;;;;4.07;3.78;;;;;;;33.62;58.94;100624.91;5069917;28;65798;-45
2023/07/10 07:33:36;;;;;;;5.28;3.65;;;;;;;33.63;59.25;100616.50;5054799;28;70540;-45
2023/07/10 07:36:07;;;;;;;4.23;3.93;;;;;;;33.65;59.26;100619.78;5042028;28;66303;-44
2023/07/10 07:38:38;;;;;;;4.45;4.15;;;;;;;33.65;59.16;100625.22;5059093;28;69991;-45
2023/07/10 07:41:09;;;;;;;4.37;4.07;;;;;;;33.65;58.86;100614.34;5061431;28;67943;-45
2023/07/10 07:43:41;;;;;;;3.67;3.47;;;;;;;33.54;59.12;100590.75;5072561;28;70209;-46
2023/07/10 07:46:12;;;;;;;4.13;3.92;;;;;;;33.69;59.19;100618.25;5061466;28;66689;-45
2023/07/10 07:48:43;;;;;;;3.83;3.47;;;;;;;33.71;58.92;100613.38;5071923;28;70134;-45
2023/07/10 07:51:14;;;;;;;4.17;3.87;;;;;;;33.65;58.97;100598.03;5068089;28;66238;-45
2023/07/10 07:53:46;;;;;;;3.83;3.53;;;;;;;33.73;58.94;100605.78;5041551;28;69839;-44
2023/07/10 07:56:17;;;;;;;3.63;3.40;;;;;;;33.71;58.67;100602.50;5067026;28;65494;-44
2023/07/10 07:58:48;;;;;;;3.80;3.50;;;;;;;33.72;58.85;100609.59;5059865;28;70227;-45
2023/07/10 08:01:19;;;;;;;4.35;3.95;;;;;;;33.75;59.06;100609.09;5058501;28;66249;-45
2023/07/10 08:03:50;;;;;;;3.50;3.30;;;;;;;33.69;59.08;100604.63;5041550;28;69705;-44
2023/07/10 08:06:22;;;;;;;4.10;3.80;;;;;;;33.60;58.74;100578.91;5059205;28;66008;-44
2023/07/10 08:08:54;;;;;;;4.35;3.90;;;;;;;33.76;59.07;100594.41;5058774;28;70639;-45
2023/07/10 08:11:25;;;;;;;5.88;3.72;;;;;;;33.65;58.85;100576.25;5062410;28;65574;-45
2023/07/10 08:13:57;;;;;;;3.88;3.67;;;;;;;33.73;58.64;100584.00;5048521;28;69889;-45
2023/07/10 08:16:28;;;;;;;8.73;3.80;;;;;;;33.80;58.76;100590.13;5065944;28;66197;-45
2023/07/10 08:18:59;;;;;;;3.38;3.17;;;;;;;33.81;58.70;100580.88;5059261;28;70462;-44
2023/07/10 08:21:30;;;;;;;4.00;3.70;;;;;;;33.81;58.96;100589.03;5059656;28;66681;-44
2023/07/10 08:24:01;;;;;;;3.72;3.53;;;;;;;33.84;58.81;100584.19;5059533;28;69828;-45
2023/07/10 08:26:32;;;;;;;4.37;3.87;;;;;;;33.75;58.88;100571.00;5049564;28;66142;-44
2023/07/10 08:29:28;;;;;;;3.85;3.55;;;;;;;33.20;58.82;100500.97;5064665;28;70191;-45
2023/07/10 08:32:01;;;;;;;3.90;3.70;;;;;;;33.85;58.74;100585.81;5063628;28;65645;-45
2023/07/10 08:34:32;;;;;;;3.50;3.30;;;;;;;33.70;58.83;100568.19;5067745;28;70115;-45
2023/07/10 08:37:05;;;;;;;4.88;3.53;;;;;;;33.81;58.78;100575.44;5061623;28;66305;-44
2023/07/10 08:39:36;;;;;;;3.70;3.50;;;;;;;33.87;58.50;100581.78;5055717;28;71482;-44
2023/07/10 08:42:19;;;;;;;3.50;3.30;;;;;;;33.47;58.06;100524.81;5058417;28;66610;-45
2023/07/10 08:44:53;;;;;;;3.47;3.28;;;;;;;33.26;58.18;100486.41;5055410;28;70144;-44
2023/07/10 08:47:39;;;;;;;3.90;3.60;;;;;;;33.20;58.05;100481.94;5061101;28;66315;-45
2023/07/10 08:50:23;;;;;;;3.80;3.42;;;;;;;33.72;58.80;100574.22;5064349;28;69755;-43
2023/07/10 08:53:11;;;;;;;3.92;3.63;;;;;;;33.24;58.27;100482.28;5064644;28;66361;-45
2023/07/10 08:55:43;;;;;;;4.53;3.60;;;;;;;33.68;58.57;100543.13;5063465;28;70731;-44
2023/07/10 08:58:26;;;;;;;3.47;3.27;;;;;;;33.22;58.37;100485.25;5062081;28;66647;-44
2023/07/10 09:01:11;;;;;;;3.40;3.10;;;;;;;33.79;58.22;100571.31;5058164;28;70215;-44
2023/07/10 09:03:48;;;;;;;3.22;3.03;;;;;;;33.90;58.76;100577.75;5057414;28;66503;-44
2023/07/10 09:06:25;;;;;;;3.40;3.20;;;;;;;33.83;58.32;100558.06;5056623;28;70249;-45
2023/07/10 09:08:57;;;;;;;3.70;3.50;;;;;;;33.92;58.68;100575.63;5057483;28;66549;-44
2023/07/10 09:11:29;;;;;;;3.35;3.05;;;;;;;33.93;58.66;100574.53;5058814;28;70411;-44
2023/07/10 09:14:09;;;;;;;;;;;;;;;33.67;59.24;100573.31;5057777;28;65490;-44
2023/07/10 09:16:41;;;;;;;3.50;3.20;;;;;;;33.82;59.00;100573.53;5060258;28;70249;-48
2023/07/10 09:19:18;;;;;;;3.25;3.05;;;;;;;33.38;58.50;100498.03;5040503;28;65852;-45
2023/07/10 09:21:49;;;;;;;3.50;3.25;;;;;;;33.91;58.46;100580.22;5061909;28;70799;-44
2023/07/10 09:24:22;;;;;;;3.50;3.23;;;;;;;33.55;58.44;100517.09;5064148;28;65653;-44
2023/07/10 09:26:55;;;;;;;3.50;3.30;;;;;;;33.95;58.80;100580.56;5048415;28;69353;-44
2023/07/10 09:29:35;;;;;;;3.58;3.38;;;;;;;33.88;58.76;100578.00;5058848;28;65421;-46
2023/07/10 09:32:17;;;;;;;3.40;3.20;;;;;;;33.94;58.65;100578.91;5033558;28;69313;-44
2023/07/10 09:34:53;;;;;;;3.40;3.20;;;;;;;33.33;58.54;100480.81;5058996;28;66741;-45
2023/07/10 09:37:33;;;;;;;3.30;3.10;;;;;;;33.48;58.36;100499.25;5057055;28;69086;-45
2023/07/10 09:40:39;;;;;;;3.63;3.33;;;;;;;33.85;58.95;100577.66;5057561;28;65450;-45
2023/07/10 09:43:23;;;;;;;3.22;2.92;;;;;;;33.92;58.63;100581.06;5056537;28;69751;-45
2023/07/10 09:45:59;;;;;;;3.25;3.05;;;;;;;33.93;58.57;100594.41;5058647;28;66045;-45
2023/07/10 09:48:34;;;;;;;3.20;3.00;;;;;;;33.96;58.94;100587.63;5055077;28;70154;-46
2023/07/10 09:51:08;;;;;;;4.22;3.05;;;;;;;33.97;58.83;100583.84;5058036;28;66807;-51
2023/07/10 09:53:45;;;;;;;3.20;2.92;;;;;;;33.87;58.91;100589.13;5037461;28;70341;-44
2023/07/10 09:56:38;;;;;;;3.13;2.92;;;;;;;33.96;58.48;100606.69;5059956;28;65972;-45
2023/07/10 09:59:23;;;;;;;3.92;3.40;;;;;;;33.43;58.77;100507.31;5057430;28;70333;-43
2023/07/10 10:01:55;;;;;;;3.80;3.50;;;;;;;33.48;61.37;100575.41;5054191;28;68352;-46
2023/07/10 10:04:29;;;;;;;3.90;3.53;;;;;;;32.68;63.16;100476.63;5056278;28;70083;-46
2023/07/10 10:07:05;;;;;;;3.85;3.50;;;;;;;32.90;64.25;100553.69;5060339;28;66331;-47
2023/07/10 10:09:37;;;;;;;3.95;3.65;;;;;;;33.02;64.79;100561.00;5058983;28;70476;-45
2023/07/10 10:12:31;;;;;;;4.88;4.30;;;;;;;33.01;65.72;100597.34;5058627;28;65545;-47
2023/07/10 10:15:20;;;;;;;4.50;4.18;;;;;;;32.53;66.05;100508.91;5055797;28;70595;-47
2023/07/10 10:17:52;;;;;;;8.00;4.38;;;;;;;33.00;66.19;100590.28;5063530;28;67429;-47
2023/07/10 10:20:29;;;;;;;5.28;4.70;;;;;;;32.87;66.60;100553.31;5058668;28;70318;-46
2023/07/10 10:23:00;;;;;;;6.22;4.07;;;;;;;32.96;67.17;100567.34;5065016;28;65505;-46
2023/07/10 10:25:44;;;;;;;5.20;4.72;;;;;;;32.78;67.44;100554.78;5059867;28;70107;-47
2023/07/10 10:28:31;;;;;;;4.63;4.32;;;;;;;32.47;67.45;100500.66;5056828;28;65985;-46
2023/07/10 10:31:08;;;;;;;13.13;4.72;;;;;;;33.04;67.49;100621.31;5043325;28;68874;-47
2023/07/10 10:33:58;;;;;;;5.20;4.70;;;;;;;32.43;68.13;100523.91;5057023;28;65517;-47
2023/07/10 10:36:40;;;;;;;5.15;4.65;;;;;;;32.89;66.20;100522.13;5063732;28;69761;-46
2023/07/10 10:39:28;;;;;;;7.03;4.50;;;;;;;33.30;66.15;100569.13;5063371;28;67195;-46
2023/07/10 10:42:36;;;;;;;4.85;4.55;;;;;;;33.10;65.45;100526.09;5046490;28;70433;-46
2023/07/10 10:45:17;;;;;;;5.25;4.85;;;;;;;33.64;65.00;100601.81;5058545;28;66871;-49
2023/07/10 10:48:10;;;;;;;8.35;4.68;;;;;;;33.66;64.95;100602.41;5041655;28;70184;-47
2023/07/10 10:50:40;;;;;;;5.90;5.40;;;;;;;33.72;63.72;100604.13;5059732;28;66533;-46
2023/07/10 10:53:21;;;;;;;6.27;4.97;;;;;;;33.68;65.26;100608.41;5062460;28;70482;-47
2023/07/10 10:55:52;;;;;;;6.05;5.55;;;;;;;33.73;64.20;100619.38;5049700;28;66487;-47
2023/07/10 10:58:29;;;;;;;6.50;6.00;;;;;;;33.67;65.45;100623.09;5061381;28;70193;-47
2023/07/10 11:01:40;;;;;;;7.00;6.30;;;;;;;33.63;66.08;100638.25;5043319;28;66487;-47
2023/07/10 11:04:23;;;;;;;8.35;6.70;;;;;;;33.74;65.00;100645.53;4981094;28;69833;-53
2023/07/10 11:07:08;;;;;;;8.70;6.40;;;;;;;33.73;65.37;100640.31;5058530;28;65569;-46
2023/07/10 11:09:42;;;;;;;7.10;6.40;;;;;;;33.29;65.73;100578.34;5037479;28;69798;-47
2023/07/10 11:12:19;;;;;;;8.82;6.70;;;;;;;33.73;65.54;100660.19;5055819;28;66622;-47
2023/07/10 11:14:59;;;;;;;8.82;6.55;;;;;;;33.16;65.41;100573.22;5061808;28;69856;-46
2023/07/10 11:17:31;;;;;;;6.90;6.30;;;;;;;33.73;65.02;100675.69;5041735;28;65246;-46
2023/07/10 11:20:04;;;;;;;6.95;6.30;;;;;;;33.66;65.13;100675.84;5061620;28;70065;-46
2023/07/10 11:22:36;;;;;;;7.85;5.88;;;;;;;33.59;65.16;100667.00;5064204;28;66721;-47
2023/07/10 11:25:31;;;;;;;8.73;6.40;;;;;;;33.52;66.59;100685.34;5060491;28;70331;-47
2023/07/10 11:28:24;;;;;;;7.25;6.03;;;;;;;33.64;65.81;100688.84;5060232;28;65404;-46
2023/07/10 11:31:22;;;;;;;5.97;5.43;;;;;;;33.55;67.04;100687.59;5047272;28;70274;-45
2023/07/10 11:34:07;;;;;;;6.82;5.80;;;;;;;32.94;66.49;100581.19;5062143;28;66414;-47
2023/07/10 11:36:45;;;;;;;6.55;6.00;;;;;;;33.53;67.05;100687.84;5058466;28;70337;-47
2023/07/10 11:39:30;;;;;;;6.80;6.03;;;;;;;33.60;66.81;100709.47;5039609;28;65226;-47
2023/07/10 11:42:23;;;;;;;5.57;5.15;;;;;;;32.91;67.03;100598.78;5058910;28;70641;-47
2023/07/10 11:45:00;;;;;;;5.50;5.00;;;;;;;33.53;66.42;100687.03;5055078;28;65608;-47
2023/07/10 11:47:35;;;;;;;4.95;4.65;;;;;;;33.00;66.75;100607.41;5062016;28;70898;-47
2023/07/10 11:50:16;;;;;;;5.57;5.18;;;;;;;33.52;67.19;100718.84;5059036;28;66329;-47
2023/07/10 11:53:11;;;;;;;6.45;4.93;;;;;;;33.27;66.65;100672.91;5059875;28;70748;-48